sensor_id;sensor_type;location;lat;lon;timestamp;pressure;altitude;pressure_sealevel;temperature;humidity
74181;BME280;62544;50.826;14.354;2023-02-02T00:00:33;98750.80;;;3.16;84.43
74181;BME280;62544;50.826;14.354;2023-02-02T00:04:49;98745.95;;;3.19;82.60
74181;BME280;62544;50.826;14.354;2023-02-02T00:09:04;98743.52;;;3.20;83.76
74181;BME280;62544;50.826;14.354;2023-02-02T00:13:21;98743.27;;;3.22;84.47
74181;BME280;62544;50.826;14.354;2023-02-02T00:17:36;98741.83;;;3.24;84.37
74181;BME280;62544;50.826;14.354;2023-02-02T00:21:53;98740.79;;;3.22;81.09
74181;BME280;62544;50.826;14.354;2023-02-02T00:26:08;98736.28;;;3.18;82.79
74181;BME280;62544;50.826;14.354;2023-02-02T00:30:24;98736.69;;;3.16;81.87
74181;BME280;62544;50.826;14.354;2023-02-02T00:34:40;98734.89;;;3.16;81.21
74181;BME280;62544;50.826;14.354;2023-02-02T00:38:56;98734.00;;;3.19;81.21
74181;BME280;62544;50.826;14.354;2023-02-02T00:43:12;98729.64;;;3.19;81.24
74181;BME280;62544;50.826;14.354;2023-02-02T00:47:28;98726.60;;;3.22;80.54
74181;BME280;62544;50.826;14.354;2023-02-02T00:51:44;98721.33;;;3.19;80.67
74181;BME280;62544;50.826;14.354;2023-02-02T00:56:00;98719.08;;;3.14;82.22
74181;BME280;62544;50.826;14.354;2023-02-02T01:00:17;98718.55;;;3.11;82.16
74181;BME280;62544;50.826;14.354;2023-02-02T01:04:32;98718.17;;;3.12;81.82
74181;BME280;62544;50.826;14.354;2023-02-02T01:08:48;98718.06;;;3.11;81.57
74181;BME280;62544;50.826;14.354;2023-02-02T01:13:04;98716.77;;;3.10;78.96
74181;BME280;62544;50.826;14.354;2023-02-02T01:17:20;98717.32;;;3.14;79.43
74181;BME280;62544;50.826;14.354;2023-02-02T01:21:36;98715.59;;;3.18;77.48
74181;BME280;62544;50.826;14.354;2023-02-02T01:25:53;98713.28;;;3.24;76.69
74181;BME280;62544;50.826;14.354;2023-02-02T01:30:09;98713.34;;;3.29;77.12
74181;BME280;62544;50.826;14.354;2023-02-02T01:34:24;98710.41;;;3.29;76.77
74181;BME280;62544;50.826;14.354;2023-02-02T01:38:40;98709.08;;;3.30;76.86
74181;BME280;62544;50.826;14.354;2023-02-02T01:42:56;98706.47;;;3.30;77.67
74181;BME280;62544;50.826;14.354;2023-02-02T01:47:12;98704.08;;;3.27;77.58
74181;BME280;62544;50.826;14.354;2023-02-02T01:51:30;98703.01;;;3.26;76.27
74181;BME280;62544;50.826;14.354;2023-02-02T01:55:45;98699.90;;;3.23;76.79
74181;BME280;62544;50.826;14.354;2023-02-02T02:00:02;98698.38;;;3.20;76.91
74181;BME280;62544;50.826;14.354;2023-02-02T02:04:16;98695.98;;;3.18;78.41
74181;BME280;62544;50.826;14.354;2023-02-02T02:08:34;98695.24;;;3.16;78.05
74181;BME280;62544;50.826;14.354;2023-02-02T02:12:48;98692.88;;;3.13;77.90
74181;BME280;62544;50.826;14.354;2023-02-02T02:42:42;98684.98;;;3.25;73.92
74181;BME280;62544;50.826;14.354;2023-02-02T02:46:56;98685.46;;;3.30;74.40
74181;BME280;62544;50.826;14.354;2023-02-02T02:55:30;98686.55;;;3.40;71.88
74181;BME280;62544;50.826;14.354;2023-02-02T03:08:22;98685.11;;;3.70;70.80
74181;BME280;62544;50.826;14.354;2023-02-02T03:12:32;98682.50;;;3.78;69.33
74181;BME280;62544;50.826;14.354;2023-02-02T03:16:49;98682.97;;;3.88;68.50
74181;BME280;62544;50.826;14.354;2023-02-02T03:21:04;98680.78;;;3.94;67.74
74181;BME280;62544;50.826;14.354;2023-02-02T03:25:20;98681.59;;;3.96;69.86
74181;BME280;62544;50.826;14.354;2023-02-02T03:29:36;98685.89;;;4.02;68.44
74181;BME280;62544;50.826;14.354;2023-02-02T03:33:52;98690.31;;;4.05;67.58
74181;BME280;62544;50.826;14.354;2023-02-02T03:38:08;98694.92;;;4.08;67.46
74181;BME280;62544;50.826;14.354;2023-02-02T03:42:24;98696.37;;;4.10;67.65
74181;BME280;62544;50.826;14.354;2023-02-02T03:46:40;98702.03;;;4.14;67.31
74181;BME280;62544;50.826;14.354;2023-02-02T03:50:56;98708.81;;;4.19;67.07
74181;BME280;62544;50.826;14.354;2023-02-02T03:55:12;98711.33;;;4.22;67.99
74181;BME280;62544;50.826;14.354;2023-02-02T03:59:28;98715.31;;;4.29;68.51
74181;BME280;62544;50.826;14.354;2023-02-02T04:03:44;98720.56;;;4.30;68.60
74181;BME280;62544;50.826;14.354;2023-02-02T04:08:00;98721.22;;;4.33;69.25
74181;BME280;62544;50.826;14.354;2023-02-02T04:12:16;98724.20;;;4.30;69.54
74181;BME280;62544;50.826;14.354;2023-02-02T04:16:32;98729.77;;;4.32;68.07
74181;BME280;62544;50.826;14.354;2023-02-02T04:20:48;98734.93;;;4.34;68.30
74181;BME280;62544;50.826;14.354;2023-02-02T04:25:04;98740.38;;;4.31;69.62
74181;BME280;62544;50.826;14.354;2023-02-02T04:29:20;98745.01;;;4.28;70.07
74181;BME280;62544;50.826;14.354;2023-02-02T04:33:36;98752.81;;;4.29;69.97
74181;BME280;62544;50.826;14.354;2023-02-02T04:37:53;98757.84;;;4.39;67.92
74181;BME280;62544;50.826;14.354;2023-02-02T04:42:08;98763.90;;;4.42;69.18
74181;BME280;62544;50.826;14.354;2023-02-02T04:46:24;98768.27;;;4.40;69.37
74181;BME280;62544;50.826;14.354;2023-02-02T04:50:40;98769.27;;;4.39;70.16
74181;BME280;62544;50.826;14.354;2023-02-02T04:54:56;98774.56;;;4.38;70.45
74181;BME280;62544;50.826;14.354;2023-02-02T04:59:12;98779.35;;;4.33;70.32
74181;BME280;62544;50.826;14.354;2023-02-02T05:03:28;98785.12;;;4.33;70.31
74181;BME280;62544;50.826;14.354;2023-02-02T05:07:44;98797.45;;;4.28;71.49
74181;BME280;62544;50.826;14.354;2023-02-02T05:12:00;98803.49;;;4.24;71.82
74181;BME280;62544;50.826;14.354;2023-02-02T05:16:16;98808.70;;;4.18;71.88
74181;BME280;62544;50.826;14.354;2023-02-02T05:20:32;98814.62;;;4.13;73.35
74181;BME280;62544;50.826;14.354;2023-02-02T05:24:48;98820.67;;;4.06;75.06
74181;BME280;62544;50.826;14.354;2023-02-02T05:29:04;98827.44;;;3.99;76.17
74181;BME280;62544;50.826;14.354;2023-02-02T05:33:20;98832.75;;;3.87;78.57
74181;BME280;62544;50.826;14.354;2023-02-02T05:37:36;98843.37;;;3.75;77.57
74181;BME280;62544;50.826;14.354;2023-02-02T05:41:52;98849.39;;;3.68;78.24
74181;BME280;62544;50.826;14.354;2023-02-02T05:46:08;98854.80;;;3.68;77.81
74181;BME280;62544;50.826;14.354;2023-02-02T05:50:24;98858.42;;;3.63;77.42
74181;BME280;62544;50.826;14.354;2023-02-02T05:54:40;98863.13;;;3.60;76.70
74181;BME280;62544;50.826;14.354;2023-02-02T05:58:56;98866.03;;;3.54;77.30
74181;BME280;62544;50.826;14.354;2023-02-02T06:03:12;98871.84;;;3.51;77.65
74181;BME280;62544;50.826;14.354;2023-02-02T06:07:28;98875.05;;;3.50;79.11
74181;BME280;62544;50.826;14.354;2023-02-02T06:11:44;98881.61;;;3.55;78.02
74181;BME280;62544;50.826;14.354;2023-02-02T06:16:00;98885.71;;;3.60;77.20
74181;BME280;62544;50.826;14.354;2023-02-02T06:20:16;98889.50;;;3.61;76.77
74181;BME280;62544;50.826;14.354;2023-02-02T06:24:32;98894.00;;;3.65;76.51
74181;BME280;62544;50.826;14.354;2023-02-02T06:28:49;98899.43;;;3.62;77.70
74181;BME280;62544;50.826;14.354;2023-02-02T06:33:04;98904.21;;;3.57;78.39
74181;BME280;62544;50.826;14.354;2023-02-02T06:37:20;98910.67;;;3.56;78.30
74181;BME280;62544;50.826;14.354;2023-02-02T06:41:36;98915.21;;;3.52;80.37
74181;BME280;62544;50.826;14.354;2023-02-02T06:45:52;98918.08;;;3.50;80.44
74181;BME280;62544;50.826;14.354;2023-02-02T06:50:08;98922.68;;;3.48;82.32
74181;BME280;62544;50.826;14.354;2023-02-02T06:54:24;98925.48;;;3.44;81.80
74181;BME280;62544;50.826;14.354;2023-02-02T06:58:40;98930.97;;;3.33;82.59
74181;BME280;62544;50.826;14.354;2023-02-02T07:02:56;98935.66;;;3.28;83.34
74181;BME280;62544;50.826;14.354;2023-02-02T07:07:12;98938.03;;;3.27;83.36
74181;BME280;62544;50.826;14.354;2023-02-02T07:11:29;98942.89;;;3.24;85.42
74181;BME280;62544;50.826;14.354;2023-02-02T07:15:44;98946.06;;;3.24;84.61
74181;BME280;62544;50.826;14.354;2023-02-02T07:20:00;98943.78;;;3.27;83.55
74181;BME280;62544;50.826;14.354;2023-02-02T07:24:16;98947.55;;;3.25;83.89
74181;BME280;62544;50.826;14.354;2023-02-02T07:28:32;98951.98;;;3.23;83.58
74181;BME280;62544;50.826;14.354;2023-02-02T07:32:48;98954.21;;;3.25;85.09
74181;BME280;62544;50.826;14.354;2023-02-02T07:37:04;98957.25;;;3.29;84.41
74181;BME280;62544;50.826;14.354;2023-02-02T07:41:20;98961.85;;;3.29;85.21
74181;BME280;62544;50.826;14.354;2023-02-02T07:45:36;98965.94;;;3.28;84.75
74181;BME280;62544;50.826;14.354;2023-02-02T07:49:52;98972.77;;;3.32;85.05
74181;BME280;62544;50.826;14.354;2023-02-02T07:54:08;98978.09;;;3.38;82.46
74181;BME280;62544;50.826;14.354;2023-02-02T07:58:24;98982.87;;;3.50;81.54
74181;BME280;62544;50.826;14.354;2023-02-02T08:02:40;98990.36;;;3.59;81.87
74181;BME280;62544;50.826;14.354;2023-02-02T08:06:56;98997.33;;;3.61;83.62
74181;BME280;62544;50.826;14.354;2023-02-02T08:11:12;99002.09;;;3.60;84.46
74181;BME280;62544;50.826;14.354;2023-02-02T08:15:28;99005.81;;;3.69;83.36
74181;BME280;62544;50.826;14.354;2023-02-02T08:19:44;99013.59;;;3.70;83.57
74181;BME280;62544;50.826;14.354;2023-02-02T08:24:00;99020.58;;;3.67;84.58
74181;BME280;62544;50.826;14.354;2023-02-02T08:28:16;99028.20;;;3.68;84.21
74181;BME280;62544;50.826;14.354;2023-02-02T08:32:32;99036.33;;;3.63;88.51
74181;BME280;62544;50.826;14.354;2023-02-02T08:36:48;99040.87;;;3.54;88.35
74181;BME280;62544;50.826;14.354;2023-02-02T08:41:05;99045.61;;;3.44;89.77
74181;BME280;62544;50.826;14.354;2023-02-02T08:45:20;99050.37;;;3.45;88.89
74181;BME280;62544;50.826;14.354;2023-02-02T08:49:36;99056.45;;;3.58;86.45
74181;BME280;62544;50.826;14.354;2023-02-02T08:53:52;99061.41;;;3.67;85.82
74181;BME280;62544;50.826;14.354;2023-02-02T08:58:08;99066.50;;;3.70;86.11
74181;BME280;62544;50.826;14.354;2023-02-02T09:02:24;99071.77;;;3.75;87.77
74181;BME280;62544;50.826;14.354;2023-02-02T09:06:40;99075.37;;;3.83;84.40
74181;BME280;62544;50.826;14.354;2023-02-02T09:10:56;99078.59;;;3.85;85.33
74181;BME280;62544;50.826;14.354;2023-02-02T09:15:12;99082.37;;;3.90;85.16
74181;BME280;62544;50.826;14.354;2023-02-02T09:19:29;99085.42;;;3.97;85.11
74181;BME280;62544;50.826;14.354;2023-02-02T09:23:44;99086.58;;;4.09;83.63
74181;BME280;62544;50.826;14.354;2023-02-02T09:28:00;99089.18;;;4.22;84.52
74181;BME280;62544;50.826;14.354;2023-02-02T09:32:16;99093.95;;;4.35;84.43
74181;BME280;62544;50.826;14.354;2023-02-02T09:36:33;99098.16;;;4.34;81.18
74181;BME280;62544;50.826;14.354;2023-02-02T09:40:48;99100.62;;;4.28;82.87
74181;BME280;62544;50.826;14.354;2023-02-02T09:45:10;99107.44;;;4.34;84.17
74181;BME280;62544;50.826;14.354;2023-02-02T09:49:24;99112.78;;;4.39;82.98
74181;BME280;62544;50.826;14.354;2023-02-02T09:57:54;99118.71;;;4.43;83.52
74181;BME280;62544;50.826;14.354;2023-02-02T10:02:23;99124.79;;;4.50;83.39
74181;BME280;62544;50.826;14.354;2023-02-02T10:10:40;99136.47;;;4.46;85.74
74181;BME280;62544;50.826;14.354;2023-02-02T10:19:12;99144.28;;;4.34;86.64
74181;BME280;62544;50.826;14.354;2023-02-02T10:23:29;99149.63;;;4.26;88.02
74181;BME280;62544;50.826;14.354;2023-02-02T10:27:46;99155.88;;;4.27;86.34
74181;BME280;62544;50.826;14.354;2023-02-02T10:36:22;99164.76;;;4.19;86.25
74181;BME280;62544;50.826;14.354;2023-02-02T10:44:49;99172.42;;;4.26;85.39
74181;BME280;62544;50.826;14.354;2023-02-02T10:53:20;99177.90;;;4.71;83.77
74181;BME280;62544;50.826;14.354;2023-02-02T11:01:52;99179.61;;;5.24;82.51
74181;BME280;62544;50.826;14.354;2023-02-02T11:06:09;99179.89;;;5.55;80.59
74181;BME280;62544;50.826;14.354;2023-02-02T11:10:24;99179.61;;;5.63;79.21
74181;BME280;62544;50.826;14.354;2023-02-02T11:14:42;99183.03;;;5.53;83.40
74181;BME280;62544;50.826;14.354;2023-02-02T11:18:56;99185.42;;;5.37;84.93
74181;BME280;62544;50.826;14.354;2023-02-02T11:23:15;99187.95;;;5.15;87.10
74181;BME280;62544;50.826;14.354;2023-02-02T11:27:37;99189.81;;;4.95;87.92
74181;BME280;62544;50.826;14.354;2023-02-02T11:31:44;99191.24;;;4.83;86.99
74181;BME280;62544;50.826;14.354;2023-02-02T11:36:01;99192.39;;;4.73;86.84
74181;BME280;62544;50.826;14.354;2023-02-02T11:44:32;99199.72;;;4.49;88.48
74181;BME280;62544;50.826;14.354;2023-02-02T11:48:57;99201.51;;;4.42;85.87
74181;BME280;62544;50.826;14.354;2023-02-02T11:53:04;99203.27;;;4.40;87.64
74181;BME280;62544;50.826;14.354;2023-02-02T11:57:21;99203.75;;;4.46;82.78
74181;BME280;62544;50.826;14.354;2023-02-02T12:01:36;99206.14;;;4.71;83.45
74181;BME280;62544;50.826;14.354;2023-02-02T12:05:52;99204.74;;;5.12;78.75
74181;BME280;62544;50.826;14.354;2023-02-02T12:10:18;99204.58;;;5.41;78.46
74181;BME280;62544;50.826;14.354;2023-02-02T12:18:53;99202.48;;;5.54;80.30
74181;BME280;62544;50.826;14.354;2023-02-02T12:27:16;99209.16;;;5.68;78.91
74181;BME280;62544;50.826;14.354;2023-02-02T12:31:32;99211.10;;;5.62;81.48
74181;BME280;62544;50.826;14.354;2023-02-02T12:48:35;99207.62;;;6.00;77.76
74181;BME280;62544;50.826;14.354;2023-02-02T12:52:58;99206.58;;;6.26;77.10
74181;BME280;62544;50.826;14.354;2023-02-02T12:57:22;99208.37;;;6.49;75.49
74181;BME280;62544;50.826;14.354;2023-02-02T13:01:29;99212.28;;;6.56;75.80
74181;BME280;62544;50.826;14.354;2023-02-02T13:22:40;99232.26;;;5.63;81.78
74181;BME280;62544;50.826;14.354;2023-02-02T13:26:56;99233.78;;;5.57;80.23
74181;BME280;62544;50.826;14.354;2023-02-02T13:35:48;99236.19;;;5.75;75.11
74181;BME280;62544;50.826;14.354;2023-02-02T13:39:46;99237.88;;;6.01;72.90
74181;BME280;62544;50.826;14.354;2023-02-02T13:44:05;99238.89;;;6.40;70.93
74181;BME280;62544;50.826;14.354;2023-02-02T13:48:22;99242.47;;;6.79;69.54
74181;BME280;62544;50.826;14.354;2023-02-02T13:57:05;99255.66;;;7.36;67.37
74181;BME280;62544;50.826;14.354;2023-02-02T14:01:05;99260.60;;;7.21;72.66
74181;BME280;62544;50.826;14.354;2023-02-02T14:05:27;99263.58;;;7.02;72.50
74181;BME280;62544;50.826;14.354;2023-02-02T14:09:36;99266.91;;;6.89;72.70
74181;BME280;62544;50.826;14.354;2023-02-02T14:18:08;99270.79;;;7.09;68.93
74181;BME280;62544;50.826;14.354;2023-02-02T14:26:52;99279.71;;;7.51;65.74
74181;BME280;62544;50.826;14.354;2023-02-02T14:39:28;99299.00;;;7.48;70.05
74181;BME280;62544;50.826;14.354;2023-02-02T14:43:47;99308.45;;;7.12;75.01
74181;BME280;62544;50.826;14.354;2023-02-02T14:48:09;99317.94;;;6.81;75.68
74181;BME280;62544;50.826;14.354;2023-02-02T14:52:21;99335.01;;;6.42;81.88
74181;BME280;62544;50.826;14.354;2023-02-02T15:00:53;99371.66;;;5.15;88.54
74181;BME280;62544;50.826;14.354;2023-02-02T15:13:36;99410.10;;;3.86;89.73
74181;BME280;62544;50.826;14.354;2023-02-02T15:18:01;99416.03;;;3.64;88.36
74181;BME280;62544;50.826;14.354;2023-02-02T15:26:27;99426.03;;;3.30;90.59
74181;BME280;62544;50.826;14.354;2023-02-02T15:30:41;99430.83;;;3.14;91.84
74181;BME280;62544;50.826;14.354;2023-02-02T15:34:57;99434.56;;;3.02;92.46
74181;BME280;62544;50.826;14.354;2023-02-02T15:43:28;99448.08;;;2.85;94.54
74181;BME280;62544;50.826;14.354;2023-02-02T15:47:44;99454.16;;;2.86;93.00
74181;BME280;62544;50.826;14.354;2023-02-02T15:52:02;99458.94;;;2.95;91.05
74181;BME280;62544;50.826;14.354;2023-02-02T15:56:24;99466.38;;;3.00;92.17
74181;BME280;62544;50.826;14.354;2023-02-02T16:00:33;99474.72;;;3.05;91.38
74181;BME280;62544;50.826;14.354;2023-02-02T16:04:48;99484.34;;;3.08;92.15
74181;BME280;62544;50.826;14.354;2023-02-02T16:09:04;99493.89;;;3.11;91.83
74181;BME280;62544;50.826;14.354;2023-02-02T16:13:23;99501.25;;;3.15;91.47
74181;BME280;62544;50.826;14.354;2023-02-02T16:17:36;99507.05;;;3.12;93.24
74181;BME280;62544;50.826;14.354;2023-02-02T16:26:10;99522.81;;;3.19;91.88
74181;BME280;62544;50.826;14.354;2023-02-02T16:30:28;99530.54;;;3.31;90.65
74181;BME280;62544;50.826;14.354;2023-02-02T16:34:44;99540.41;;;3.40;91.38
74181;BME280;62544;50.826;14.354;2023-02-02T16:38:56;99553.36;;;3.38;93.80
74181;BME280;62544;50.826;14.354;2023-02-02T16:43:18;99566.64;;;3.27;96.40
74181;BME280;62544;50.826;14.354;2023-02-02T16:47:32;99579.53;;;3.13;94.35
74181;BME280;62544;50.826;14.354;2023-02-02T16:51:45;99591.39;;;3.03;93.40
74181;BME280;62544;50.826;14.354;2023-02-02T16:56:01;99600.97;;;3.00;91.57
74181;BME280;62544;50.826;14.354;2023-02-02T17:00:20;99609.33;;;3.01;91.38
74181;BME280;62544;50.826;14.354;2023-02-02T17:04:32;99619.92;;;3.01;91.62
74181;BME280;62544;50.826;14.354;2023-02-02T17:08:48;99630.25;;;3.05;90.02
74181;BME280;62544;50.826;14.354;2023-02-02T17:17:23;99650.62;;;3.09;90.37
74181;BME280;62544;50.826;14.354;2023-02-02T17:21:39;99660.31;;;3.08;90.42
74181;BME280;62544;50.826;14.354;2023-02-02T17:25:52;99668.90;;;3.05;91.28
74181;BME280;62544;50.826;14.354;2023-02-02T17:30:09;99677.14;;;2.97;92.17
74181;BME280;62544;50.826;14.354;2023-02-02T17:34:24;99685.72;;;2.87;94.30
74181;BME280;62544;50.826;14.354;2023-02-02T17:38:40;99694.81;;;2.82;93.02
74181;BME280;62544;50.826;14.354;2023-02-02T17:42:56;99705.41;;;2.76;94.47
74181;BME280;62544;50.826;14.354;2023-02-02T17:47:12;99715.05;;;2.73;93.08
74181;BME280;62544;50.826;14.354;2023-02-02T17:51:28;99723.38;;;2.69;92.83
74181;BME280;62544;50.826;14.354;2023-02-02T17:55:45;99730.35;;;2.66;93.99
74181;BME280;62544;50.826;14.354;2023-02-02T18:00:00;99736.70;;;2.62;94.61
74181;BME280;62544;50.826;14.354;2023-02-02T18:04:16;99741.35;;;2.62;93.77
74181;BME280;62544;50.826;14.354;2023-02-02T18:08:32;99746.34;;;2.61;93.69
74181;BME280;62544;50.826;14.354;2023-02-02T18:12:48;99750.85;;;2.61;92.61
74181;BME280;62544;50.826;14.354;2023-02-02T18:17:04;99755.44;;;2.60;91.89
74181;BME280;62544;50.826;14.354;2023-02-02T18:21:20;99760.46;;;2.57;91.08
74181;BME280;62544;50.826;14.354;2023-02-02T18:25:36;99766.72;;;2.54;91.03
74181;BME280;62544;50.826;14.354;2023-02-02T18:29:52;99771.55;;;2.47;93.05
74181;BME280;62544;50.826;14.354;2023-02-02T18:34:08;99777.29;;;2.45;92.95
74181;BME280;62544;50.826;14.354;2023-02-02T18:38:24;99780.81;;;2.42;93.99
74181;BME280;62544;50.826;14.354;2023-02-02T18:42:40;99785.69;;;2.36;96.81
74181;BME280;62544;50.826;14.354;2023-02-02T18:46:59;99790.32;;;2.35;95.90
74181;BME280;62544;50.826;14.354;2023-02-02T18:51:13;99795.53;;;2.40;94.51
74181;BME280;62544;50.826;14.354;2023-02-02T18:55:28;99800.74;;;2.47;93.39
74181;BME280;62544;50.826;14.354;2023-02-02T18:59:44;99803.67;;;2.57;92.32
74181;BME280;62544;50.826;14.354;2023-02-02T19:04:00;99807.37;;;2.67;91.67
74181;BME280;62544;50.826;14.354;2023-02-02T19:08:16;99811.22;;;2.75;91.08
74181;BME280;62544;50.826;14.354;2023-02-02T19:12:32;99816.64;;;2.80;91.11
74181;BME280;62544;50.826;14.354;2023-02-02T19:16:48;99822.85;;;2.83;90.61
74181;BME280;62544;50.826;14.354;2023-02-02T19:21:05;99827.72;;;2.81;92.48
74181;BME280;62544;50.826;14.354;2023-02-02T19:25:20;99830.35;;;2.80;92.15
74181;BME280;62544;50.826;14.354;2023-02-02T19:29:37;99835.43;;;2.72;94.08
74181;BME280;62544;50.826;14.354;2023-02-02T19:33:52;99839.94;;;2.71;92.30
74181;BME280;62544;50.826;14.354;2023-02-02T19:38:09;99844.98;;;2.68;92.50
74181;BME280;62544;50.826;14.354;2023-02-02T19:42:24;99849.16;;;2.62;93.70
74181;BME280;62544;50.826;14.354;2023-02-02T19:46:41;99852.75;;;2.53;94.09
74181;BME280;62544;50.826;14.354;2023-02-02T19:50:56;99856.02;;;2.49;93.07
74181;BME280;62544;50.826;14.354;2023-02-02T19:55:23;99857.01;;;2.49;92.30
74181;BME280;62544;50.826;14.354;2023-02-02T19:59:31;99859.83;;;2.46;92.73
74181;BME280;62544;50.826;14.354;2023-02-02T20:03:44;99862.83;;;2.49;91.45
74181;BME280;62544;50.826;14.354;2023-02-02T20:08:03;99865.71;;;2.54;91.04
74181;BME280;62544;50.826;14.354;2023-02-02T20:12:34;99868.01;;;2.57;91.04
74181;BME280;62544;50.826;14.354;2023-02-02T20:16:35;99871.20;;;2.57;90.91
74181;BME280;62544;50.826;14.354;2023-02-02T20:20:53;99874.78;;;2.60;90.88
74181;BME280;62544;50.826;14.354;2023-02-02T20:25:05;99879.50;;;2.62;90.67
74181;BME280;62544;50.826;14.354;2023-02-02T20:29:24;99883.67;;;2.57;91.75
74181;BME280;62544;50.826;14.354;2023-02-02T20:33:36;99887.72;;;2.50;92.37
74181;BME280;62544;50.826;14.354;2023-02-02T20:37:52;99891.82;;;2.47;92.39
74181;BME280;62544;50.826;14.354;2023-02-02T20:42:10;99894.42;;;2.45;91.92
74181;BME280;62544;50.826;14.354;2023-02-02T20:46:24;99896.01;;;2.43;92.11
74181;BME280;62544;50.826;14.354;2023-02-02T20:50:40;99897.81;;;2.39;92.65
74181;BME280;62544;50.826;14.354;2023-02-02T20:55:00;99900.45;;;2.32;93.45
74181;BME280;62544;50.826;14.354;2023-02-02T20:59:12;99901.87;;;2.29;93.16
74181;BME280;62544;50.826;14.354;2023-02-02T21:03:28;99902.42;;;2.31;92.14
74181;BME280;62544;50.826;14.354;2023-02-02T21:07:44;99902.18;;;2.35;91.59
74181;BME280;62544;50.826;14.354;2023-02-02T21:12:00;99901.31;;;2.33;92.77
74181;BME280;62544;50.826;14.354;2023-02-02T21:16:16;99902.09;;;2.31;92.92
74181;BME280;62544;50.826;14.354;2023-02-02T21:20:32;99903.83;;;2.35;92.38
74181;BME280;62544;50.826;14.354;2023-02-02T21:24:48;99905.69;;;2.39;91.96
74181;BME280;62544;50.826;14.354;2023-02-02T21:29:04;99906.81;;;2.45;91.37
74181;BME280;62544;50.826;14.354;2023-02-02T21:33:20;99908.65;;;2.45;92.07
74181;BME280;62544;50.826;14.354;2023-02-02T21:37:36;99909.16;;;2.50;91.40
74181;BME280;62544;50.826;14.354;2023-02-02T21:41:55;99908.84;;;2.50;92.27
74181;BME280;62544;50.826;14.354;2023-02-02T21:46:17;99907.44;;;2.48;92.08
74181;BME280;62544;50.826;14.354;2023-02-02T21:50:25;99904.27;;;2.47;91.88
74181;BME280;62544;50.826;14.354;2023-02-02T21:54:40;99901.83;;;2.51;91.02
74181;BME280;62544;50.826;14.354;2023-02-02T21:58:57;99899.25;;;2.55;90.99
74181;BME280;62544;50.826;14.354;2023-02-02T22:07:29;99895.92;;;2.64;90.50
74181;BME280;62544;50.826;14.354;2023-02-02T22:11:49;99895.08;;;2.62;90.87
74181;BME280;62544;50.826;14.354;2023-02-02T22:16:00;99896.67;;;2.55;92.35
74181;BME280;62544;50.826;14.354;2023-02-02T22:24:32;99902.00;;;2.55;91.20
74181;BME280;62544;50.826;14.354;2023-02-02T22:28:48;99904.53;;;2.52;92.54
74181;BME280;62544;50.826;14.354;2023-02-02T22:33:05;99905.43;;;2.51;91.71
74181;BME280;62544;50.826;14.354;2023-02-02T22:37:20;99906.53;;;2.48;91.50
74181;BME280;62544;50.826;14.354;2023-02-02T22:41:36;99907.26;;;2.44;91.67
74181;BME280;62544;50.826;14.354;2023-02-02T22:45:52;99908.52;;;2.41;90.82
74181;BME280;62544;50.826;14.354;2023-02-02T22:50:08;99908.29;;;2.38;90.56
74181;BME280;62544;50.826;14.354;2023-02-02T22:54:24;99907.34;;;2.32;90.46
74181;BME280;62544;50.826;14.354;2023-02-02T22:58:40;99907.97;;;2.25;90.18
74181;BME280;62544;50.826;14.354;2023-02-02T23:02:56;99907.12;;;2.18;90.59
74181;BME280;62544;50.826;14.354;2023-02-02T23:07:12;99906.55;;;2.09;90.75
74181;BME280;62544;50.826;14.354;2023-02-02T23:11:28;99906.20;;;1.96;92.32
74181;BME280;62544;50.826;14.354;2023-02-02T23:15:44;99905.44;;;1.91;91.21
74181;BME280;62544;50.826;14.354;2023-02-02T23:20:01;99905.15;;;1.90;91.10
74181;BME280;62544;50.826;14.354;2023-02-02T23:24:16;99904.54;;;1.92;90.48
74181;BME280;62544;50.826;14.354;2023-02-02T23:28:32;99902.72;;;1.94;90.06
74181;BME280;62544;50.826;14.354;2023-02-02T23:32:48;99902.18;;;1.96;89.98
74181;BME280;62544;50.826;14.354;2023-02-02T23:37:04;99900.27;;;1.98;89.65
74181;BME280;62544;50.826;14.354;2023-02-02T23:41:20;99898.30;;;1.98;90.14
74181;BME280;62544;50.826;14.354;2023-02-02T23:45:36;99896.30;;;1.97;90.58
74181;BME280;62544;50.826;14.354;2023-02-02T23:49:52;99893.34;;;1.97;90.65
74181;BME280;62544;50.826;14.354;2023-02-02T23:54:09;99889.86;;;1.98;89.85
74181;BME280;62544;50.826;14.354;2023-02-02T23:58:24;99889.22;;;2.00;89.54
